createdAt,value
2023-08-17T00:00:41.356Z,0.045
2023-08-17T00:01:41.999Z,0.045
2023-08-17T00:02:41.542Z,0.045
2023-08-17T00:03:42.950Z,0.045
2023-08-17T00:04:41.434Z,0.045
2023-08-17T00:05:41.922Z,0.045
2023-08-17T00:06:42.424Z,0.036
2023-08-17T00:07:42.612Z,0.036
2023-08-17T00:08:42.100Z,0.036
2023-08-17T00:09:41.508Z,0.036
2023-08-17T00:10:41.997Z,0.036
2023-08-17T00:11:41.495Z,0.036
2023-08-17T00:12:41.967Z,0.036
2023-08-17T00:13:42.439Z,0.036
2023-08-17T00:14:41.873Z,0.036
2023-08-17T00:15:42.330Z,0.036
2023-08-17T00:16:42.050Z,0.036
2023-08-17T00:17:42.141Z,0.036
2023-08-17T00:18:41.637Z,0.036
2023-08-17T00:19:42.175Z,0.036
2023-08-17T00:20:41.632Z,0.036
2023-08-17T00:21:42.314Z,0.027
2023-08-17T00:22:41.721Z,0.027
2023-08-17T00:23:42.225Z,0.027
2023-08-17T00:24:41.628Z,0.027
2023-08-17T00:25:42.206Z,0.027
2023-08-17T00:26:41.660Z,0.027
2023-08-17T00:27:42.621Z,0.027
2023-08-17T00:28:42.058Z,0.027
2023-08-17T00:29:41.532Z,0.027
2023-08-17T00:30:42.067Z,0.027
2023-08-17T00:31:41.764Z,0.027
2023-08-17T00:32:42.327Z,0.027
2023-08-17T00:33:41.786Z,0.027
2023-08-17T00:34:42.220Z,0.027
2023-08-17T00:35:41.671Z,0.027
2023-08-17T00:36:42.075Z,0.027
2023-08-17T00:37:42.000Z,0.027
2023-08-17T00:38:41.490Z,0.027
2023-08-17T00:39:41.917Z,0.027
2023-08-17T00:41:42.073Z,0.027
2023-08-17T00:42:41.731Z,0.027
2023-08-17T00:43:42.371Z,0.027
2023-08-17T00:44:41.770Z,0.027
2023-08-17T00:45:42.797Z,0.027
2023-08-17T00:46:42.238Z,0.027
2023-08-17T00:47:41.852Z,0.027
2023-08-17T00:48:42.506Z,0.027
2023-08-17T00:49:41.946Z,0.027
2023-08-17T00:50:42.582Z,0.027
2023-08-17T00:52:41.476Z,0.027
2023-08-17T00:53:41.913Z,0.027
2023-08-17T00:54:42.393Z,0.027
2023-08-17T00:55:42.736Z,0.027
2023-08-17T00:56:42.209Z,0.027
2023-08-17T01:00:04.224Z,0.018
2023-08-17T01:00:41.623Z,0.018
2023-08-17T01:01:42.701Z,0.018
2023-08-17T01:02:41.582Z,0.018
2023-08-17T01:03:42.102Z,0.018
2023-08-17T01:04:41.678Z,0.018
2023-08-17T01:05:42.140Z,0.018
2023-08-17T01:06:41.552Z,0.018
2023-08-17T01:07:42.029Z,0.018
2023-08-17T01:08:41.460Z,0.018
2023-08-17T01:09:41.940Z,0.018
2023-08-17T01:10:42.343Z,0.018
2023-08-17T01:11:41.827Z,0.018
2023-08-17T01:12:42.248Z,0.018
2023-08-17T01:13:41.727Z,0.018
2023-08-17T01:14:42.270Z,0.018
2023-08-17T01:15:42.023Z,0.018
2023-08-17T01:16:41.493Z,0.018
2023-08-17T01:17:42.520Z,0.018
2023-08-17T01:18:42.598Z,0.018
2023-08-17T01:19:42.056Z,0.018
2023-08-17T01:20:41.504Z,0.018
2023-08-17T01:21:41.982Z,0.018
2023-08-17T01:24:42.440Z,0.018
2023-08-17T01:25:41.974Z,0.018
2023-08-17T01:26:42.394Z,0.018
2023-08-17T01:27:42.483Z,0.018
2023-08-17T01:28:41.922Z,0.018
2023-08-17T01:29:42.427Z,0.018
2023-08-17T01:30:41.841Z,0.018
2023-08-17T01:31:42.507Z,0.027
2023-08-17T01:32:42.239Z,0.018
2023-08-17T01:33:41.668Z,0.027
2023-08-17T01:34:42.129Z,0.027
2023-08-17T01:35:41.709Z,0.027
2023-08-17T01:36:42.194Z,0.027
2023-08-17T01:37:41.933Z,0.027
2023-08-17T01:38:42.331Z,0.027
2023-08-17T01:41:41.751Z,0.036
2023-08-17T01:42:42.216Z,0.036
2023-08-17T01:43:41.666Z,0.036
2023-08-17T01:44:42.176Z,0.036
2023-08-17T01:45:41.597Z,0.036
2023-08-17T01:46:42.562Z,0.036
2023-08-17T01:47:43.512Z,0.036
2023-08-17T01:48:42.057Z,0.036
2023-08-17T01:49:41.645Z,0.036
2023-08-17T01:50:42.201Z,0.045
2023-08-17T01:51:41.569Z,0.045
2023-08-17T01:52:42.190Z,0.045
2023-08-17T01:53:41.729Z,0.045
2023-08-17T01:54:42.172Z,0.045
2023-08-17T01:55:41.618Z,0.045
2023-08-17T01:56:41.989Z,0.054
2023-08-17T01:57:41.857Z,0.054
2023-08-17T01:58:42.285Z,0.054
2023-08-17T01:59:41.793Z,0.054
2023-08-17T02:00:42.412Z,0.054
2023-08-17T02:01:41.949Z,0.054
2023-08-17T02:02:43.001Z,0.054
2023-08-17T02:03:41.525Z,0.054
2023-08-17T02:04:41.998Z,0.054
2023-08-17T02:05:41.546Z,0.054
2023-08-17T02:06:42.062Z,0.054
2023-08-17T02:07:42.008Z,0.054
2023-08-17T02:08:41.490Z,0.054
2023-08-17T02:09:42.596Z,0.054
2023-08-17T02:11:41.514Z,0.054
2023-08-17T02:12:41.932Z,0.054
2023-08-17T02:13:42.388Z,0.054
2023-08-17T02:14:41.895Z,0.054
2023-08-17T02:15:42.384Z,0.054
2023-08-17T02:16:42.231Z,0.054
2023-08-17T02:17:42.147Z,0.054
2023-08-17T02:19:42.004Z,0.054
2023-08-17T02:20:41.443Z,0.054
2023-08-17T02:21:41.846Z,0.054
2023-08-17T02:22:42.361Z,0.054
2023-08-17T02:23:41.914Z,0.054
2023-08-17T02:24:42.368Z,0.054
2023-08-17T02:25:42.037Z,0.054
2023-08-17T02:26:41.433Z,0.054
2023-08-17T02:27:42.295Z,0.054
2023-08-17T02:28:41.766Z,0.054
2023-08-17T02:29:42.296Z,0.054
2023-08-17T02:30:42.118Z,0.054
2023-08-17T02:31:41.559Z,0.054
2023-08-17T02:32:42.296Z,0.054
2023-08-17T02:33:41.798Z,0.054
2023-08-17T02:34:42.215Z,0.054
2023-08-17T02:35:41.975Z,0.054
2023-08-17T02:36:43.166Z,0.054
2023-08-17T02:37:42.184Z,0.054
2023-08-17T02:40:41.847Z,0.045
2023-08-17T02:41:42.420Z,0.045
2023-08-17T02:42:41.860Z,0.045
2023-08-17T02:43:42.319Z,0.045
2023-08-17T02:44:41.763Z,0.045
2023-08-17T02:45:42.266Z,0.045
2023-08-17T02:47:42.587Z,0.045
2023-08-17T02:48:42.615Z,0.045
2023-08-17T02:49:42.168Z,0.045
2023-08-17T02:50:41.634Z,0.045
2023-08-17T02:51:42.343Z,0.045
2023-08-17T02:54:41.985Z,0.045
2023-08-17T02:55:41.464Z,0.045
2023-08-17T02:56:41.920Z,0.054
2023-08-17T02:57:42.330Z,0.054
2023-08-17T02:58:41.819Z,0.054
2023-08-17T02:59:42.228Z,0.054
2023-08-17T03:00:41.720Z,0.062
2023-08-17T03:01:42.352Z,0.062
2023-08-17T03:02:42.432Z,0.062
2023-08-17T03:04:41.783Z,0.071
2023-08-17T03:05:42.265Z,0.071
2023-08-17T03:06:41.731Z,0.080
2023-08-17T03:07:42.370Z,0.080
2023-08-17T03:08:41.773Z,0.080
2023-08-17T03:09:42.248Z,0.089
2023-08-17T03:10:41.969Z,0.089
2023-08-17T03:11:41.459Z,0.098
2023-08-17T03:12:41.890Z,0.098
2023-08-17T03:13:42.344Z,0.107
2023-08-17T03:14:41.779Z,0.116
2023-08-17T03:15:42.621Z,0.125
2023-08-17T03:17:42.433Z,0.152
2023-08-17T03:18:45.198Z,0.169
2023-08-17T03:19:42.082Z,0.187
2023-08-17T03:20:41.593Z,0.205
2023-08-17T03:21:42.125Z,0.232
2023-08-17T03:22:41.618Z,0.268
2023-08-17T03:23:42.047Z,0.303
2023-08-17T03:24:41.427Z,0.348
2023-08-17T03:25:42.073Z,0.401
2023-08-17T03:26:41.523Z,0.473
2023-08-17T03:28:42.212Z,0.642
2023-08-17T03:29:41.614Z,0.749
2023-08-17T03:30:42.318Z,0.901
2023-08-17T03:33:41.871Z,1.641
2023-08-17T03:34:42.551Z,2.015
2023-08-17T03:35:42.076Z,2.452
2023-08-17T03:36:41.490Z,2.943
2023-08-17T03:37:42.471Z,3.522
2023-08-17T03:38:42.179Z,4.182
2023-08-17T03:40:42.060Z,5.823
2023-08-17T03:41:41.485Z,6.839
2023-08-17T03:42:42.081Z,8.025
2023-08-17T03:45:41.560Z,12.920
2023-08-17T03:46:42.314Z,15.185
2023-08-17T03:47:42.282Z,17.762
2023-08-17T03:48:41.751Z,20.883
2023-08-17T03:49:42.239Z,24.539
2023-08-17T03:50:41.829Z,28.828
2023-08-17T03:51:42.321Z,33.678
2023-08-17T03:52:41.818Z,39.322
2023-08-17T03:53:42.242Z,46.251
2023-08-17T03:54:41.694Z,54.436
2023-08-17T03:55:42.143Z,64.093
2023-08-17T03:56:41.812Z,74.829
2023-08-17T03:57:46.482Z,87.526
2023-08-17T03:58:41.921Z,101.926
2023-08-17T03:59:42.350Z,118.440
2023-08-17T04:00:42.049Z,135.596
2023-08-17T04:01:41.876Z,155.088
2023-08-17T04:02:42.525Z,177.772
2023-08-17T04:03:41.991Z,204.299
2023-08-17T04:04:41.652Z,235.017
2023-08-17T04:05:42.190Z,270.237
2023-08-17T04:06:41.573Z,306.965
2023-08-17T04:07:42.592Z,346.252
2023-08-17T04:10:42.151Z,476.747
2023-08-17T04:11:41.627Z,508.464
2023-08-17T04:12:42.073Z,556.453
2023-08-17T04:13:42.995Z,605.727
2023-08-17T04:14:41.449Z,657.247
2023-08-17T04:15:42.040Z,711.978
2023-08-17T04:16:41.766Z,769.758
2023-08-17T04:17:42.890Z,830.909
2023-08-17T04:18:42.458Z,895.430
2023-08-17T04:19:42.210Z,961.234
2023-08-17T04:20:41.790Z,1028.965
2023-08-17T04:21:42.423Z,1097.017
2023-08-17T04:24:41.842Z,1313.693
2023-08-17T04:25:42.328Z,1390.733
2023-08-17T04:26:41.906Z,1470.501
2023-08-17T04:27:42.374Z,1549.146
2023-08-17T04:28:41.834Z,1622.816
2023-08-17T04:29:42.381Z,1689.262
2023-08-17T04:30:41.858Z,1756.031
2023-08-17T04:31:42.657Z,1822.317
2023-08-17T04:32:42.497Z,1885.875
2023-08-17T04:33:41.964Z,1956.495
2023-08-17T04:34:42.427Z,2050.227
2023-08-17T04:37:42.375Z,2378.128
2023-08-17T04:38:41.803Z,2486.145
2023-08-17T04:39:42.391Z,2584.853
2023-08-17T04:40:41.860Z,2666.708
2023-08-17T04:41:42.498Z,2734.760
2023-08-17T04:42:41.920Z,2802.972
2023-08-17T04:43:42.555Z,2862.999
2023-08-17T04:44:41.951Z,2919.334
2023-08-17T04:45:43.051Z,2987.226
2023-08-17T04:46:41.483Z,3066.994
2023-08-17T04:47:42.484Z,3166.665
2023-08-17T04:48:41.899Z,3271.632
2023-08-17T04:49:42.405Z,3381.414
2023-08-17T04:50:41.944Z,3499.702
2023-08-17T04:52:41.838Z,3732.106
2023-08-17T04:53:42.311Z,3844.296
2023-08-17T04:54:41.761Z,3957.127
2023-08-17T04:55:42.330Z,4063.378
2023-08-17T04:56:41.747Z,4183.433
2023-08-17T04:57:43.583Z,4297.708
2023-08-17T04:58:41.967Z,4412.466
2023-08-17T04:59:41.403Z,4522.569
2023-08-17T05:00:41.840Z,4644.709
2023-08-17T05:01:46.480Z,4771.665
2023-08-17T05:02:42.618Z,4895.411
2023-08-17T05:04:42.070Z,5202.126
2023-08-17T05:05:41.494Z,5384.293
2023-08-17T05:06:41.938Z,5680.737
2023-08-17T05:07:42.748Z,5982.958
2023-08-17T05:09:41.739Z,5957.118
2023-08-17T05:10:42.345Z,6062.888
2023-08-17T05:11:42.154Z,6246.660
2023-08-17T05:13:41.967Z,7081.581
2023-08-17T05:14:42.369Z,7251.711
2023-08-17T05:15:42.093Z,7472.078
2023-08-17T05:16:41.564Z,7644.455
2023-08-17T05:17:42.406Z,7770.929
2023-08-17T05:18:41.858Z,7919.712
2023-08-17T05:19:42.358Z,8073.792
2023-08-17T05:21:42.311Z,8334.765
2023-08-17T05:22:41.756Z,8480.499
2023-08-17T05:23:42.292Z,8649.345
2023-08-17T05:24:41.648Z,8822.685
2023-08-17T05:25:42.132Z,8976.444
2023-08-17T05:26:41.740Z,9117.523
2023-08-17T05:27:42.486Z,9279.629
2023-08-17T05:28:41.899Z,9453.450
2023-08-17T05:29:42.404Z,9658.729
2023-08-17T05:30:41.911Z,9965.284
2023-08-17T05:31:42.489Z,10267.827
2023-08-17T05:32:42.113Z,10543.085
2023-08-17T05:33:41.547Z,11262.927
2023-08-17T05:34:41.969Z,12118.392
2023-08-17T05:35:42.471Z,12578.706
2023-08-17T05:36:41.879Z,12530.717
2023-08-17T05:37:42.716Z,12422.058
2023-08-17T05:38:42.155Z,12751.886
2023-08-17T05:39:44.446Z,13131.468
2023-08-17T05:40:41.872Z,13811.346
2023-08-17T05:41:42.238Z,14416.271
2023-08-17T05:42:41.938Z,14705.331
2023-08-17T05:43:42.762Z,14690.404
2023-08-17T05:45:42.012Z,15559.673
2023-08-17T05:46:41.958Z,16228.637
2023-08-17T05:47:41.759Z,16772.732
2023-08-17T05:48:42.239Z,17037.236
2023-08-17T05:49:41.684Z,17472.672
2023-08-17T05:50:42.166Z,18277.580
2023-08-17T05:51:41.588Z,18694.076
2023-08-17T05:52:42.002Z,18559.738
2023-08-17T05:53:41.466Z,18899.518
2023-08-17T05:54:41.886Z,19810.033
2023-08-17T05:55:42.509Z,20567.594
2023-08-17T05:56:41.964Z,20605.953
2023-08-17T05:57:42.375Z,20005.684
2023-08-17T05:58:42.147Z,18746.240
2023-08-17T05:59:41.776Z,18290.098
2023-08-17T06:00:42.455Z,18434.389
2023-08-17T06:01:41.905Z,18256.232
2023-08-17T06:02:42.764Z,18812.365
2023-08-17T06:04:42.096Z,21550.496
2023-08-17T06:05:41.552Z,22436.455
2023-08-17T06:06:42.025Z,23133.988
2023-08-17T06:07:41.969Z,23241.363
2023-08-17T06:09:43.308Z,23445.680
2023-08-17T06:10:41.792Z,24202.115
2023-08-17T06:11:42.249Z,24676.393
2023-08-17T06:12:41.654Z,24338.059
2023-08-17T06:13:42.065Z,23952.859
2023-08-17T06:14:41.460Z,24854.066
2023-08-17T06:15:42.206Z,25917.379
2023-08-17T06:16:41.891Z,24609.305
2023-08-17T06:17:44.045Z,23161.434
2023-08-17T06:18:41.609Z,23348.576
2023-08-17T06:19:42.177Z,26858.873
2023-08-17T06:20:41.571Z,29919.287
2023-08-17T06:21:42.026Z,30240.768
2023-08-17T06:22:41.660Z,30104.344
2023-08-17T06:23:42.105Z,28704.463
2023-08-17T06:24:41.682Z,27894.418
2023-08-17T06:25:42.103Z,28773.316
2023-08-17T06:26:41.589Z,30113.330
2023-08-17T06:27:42.551Z,30319.412
2023-08-17T06:28:41.972Z,30018.314
2023-08-17T06:29:42.420Z,29710.797
2023-08-17T06:30:41.925Z,30506.557
2023-08-17T06:31:41.447Z,31501.656
2023-08-17T06:32:42.156Z,32343.799
2023-08-17T06:33:41.695Z,33446.754
2023-08-17T06:34:44.715Z,33915.254
2023-08-17T06:35:42.155Z,33295.727
2023-08-17T06:36:41.526Z,33370.035
2023-08-17T06:37:42.280Z,34279.270
2023-08-17T06:38:41.722Z,34733.324
2023-08-17T06:39:43.894Z,34873.602
2023-08-17T06:40:42.303Z,33268.762
2023-08-17T06:41:41.674Z,32394.357
2023-08-17T06:42:42.092Z,32950.809
2023-08-17T06:44:41.981Z,36364.965
2023-08-17T06:45:41.597Z,36311.039
2023-08-17T06:46:42.235Z,36960.742
2023-08-17T06:47:42.587Z,36702.980
2023-08-17T06:48:42.054Z,35788.129
2023-08-17T06:49:41.539Z,33845.598
2023-08-17T06:50:41.945Z,31188.682
2023-08-17T06:51:42.380Z,31026.736
2023-08-17T06:52:41.782Z,33459.758
2023-08-17T06:53:42.242Z,37257.828
2023-08-17T06:54:41.773Z,40627.363
2023-08-17T06:55:42.596Z,42872.277
2023-08-17T06:56:43.202Z,45168.391
2023-08-17T06:57:42.031Z,43950.680
2023-08-17T06:58:41.570Z,41278.512
2023-08-17T06:59:42.037Z,40317.922
2023-08-17T07:00:41.605Z,39642.859
2023-08-17T07:01:42.258Z,39098.602
2023-08-17T07:04:42.895Z,44142.477
2023-08-17T07:05:42.369Z,45581.035
2023-08-17T07:06:41.802Z,47087.973
2023-08-17T07:07:42.598Z,50020.629
2023-08-17T07:08:42.023Z,51564.797
2023-08-17T07:09:41.618Z,51237.379
2023-08-17T07:10:42.121Z,50600.352
2023-08-17T07:11:41.522Z,49814.547
2023-08-17T07:12:42.582Z,51619.207
2023-08-17T07:13:41.992Z,50538.723
2023-08-17T07:14:41.614Z,49693.047
2023-08-17T07:15:42.071Z,50144.695
2023-08-17T07:16:41.720Z,51263.059
2023-08-17T07:17:43.080Z,51192.438
2023-08-17T07:18:42.638Z,52693.273
2023-08-17T07:21:41.704Z,50013.086
2023-08-17T07:22:42.203Z,50334.566
2023-08-17T07:24:42.169Z,50684.297
2023-08-17T07:25:41.653Z,52024.309
2023-08-17T07:26:42.075Z,53054.559
2023-08-17T07:27:42.274Z,51293.230
2023-08-17T07:28:41.670Z,52004.566
2023-08-17T07:29:42.220Z,55161.602
2023-08-17T07:30:41.753Z,56536.926
2023-08-17T07:31:44.427Z,58480.262
2023-08-17T07:32:42.498Z,61107.648
2023-08-17T07:33:41.960Z,60922.270
2023-08-17T07:34:42.460Z,58403.703
2023-08-17T07:35:41.924Z,55758.984
2023-08-17T07:36:42.336Z,55196.430
2023-08-17T07:37:43.206Z,52407.102
2023-08-17T07:38:41.757Z,49961.562
2023-08-17T07:39:42.363Z,48120.789
2023-08-17T07:40:41.923Z,48485.605
2023-08-17T07:41:43.542Z,49740.715
2023-08-17T07:42:43.655Z,53835.871
2023-08-17T07:43:42.181Z,57676.477
2023-08-17T07:44:41.621Z,57733.777
2023-08-17T07:45:42.152Z,61303.137
2023-08-17T07:48:41.741Z,57400.898
2023-08-17T07:49:47.175Z,61178.586
2023-08-17T07:50:41.619Z,63603.582
2023-08-17T07:51:42.034Z,65736.945
2023-08-17T07:52:41.467Z,69204.227
2023-08-17T07:53:41.886Z,68526.922
2023-08-17T07:54:42.432Z,65517.223
2023-08-17T07:55:42.918Z,64502.863
2023-08-17T07:56:42.370Z,66270.609
2023-08-17T07:58:41.772Z,68293.070
2023-08-17T07:59:42.189Z,68819.352
2023-08-17T08:00:41.646Z,67847.523
2023-08-17T08:01:42.551Z,72947.734
2023-08-17T08:02:42.320Z,75127.320
2023-08-17T08:03:41.760Z,70954.641
2023-08-17T08:04:42.264Z,71116.109
2023-08-17T08:05:42.273Z,74019.227
2023-08-17T08:06:41.766Z,76171.531
2023-08-17T08:07:42.608Z,80373.586
2023-08-17T08:08:42.078Z,78954.125
2023-08-17T08:10:42.103Z,79077.547
2023-08-17T08:11:41.651Z,81799.945
2023-08-17T08:12:42.144Z,77141.117
2023-08-17T08:13:41.578Z,75812.336
2023-08-17T08:14:42.075Z,79119.758
2023-08-17T08:15:41.888Z,80484.172
2023-08-17T08:16:42.578Z,81924.172
2023-08-17T08:17:43.357Z,80819.617
2023-08-17T08:18:41.933Z,81408.328
2023-08-17T08:19:42.639Z,87069.164
2023-08-17T08:20:42.059Z,84083.703
2023-08-17T08:21:41.579Z,75511.078
2023-08-17T08:22:42.109Z,72969.398
2023-08-17T08:25:42.063Z,76894.430
2023-08-17T08:29:42.422Z,83603.328
2023-08-17T08:30:41.875Z,86036.508
2023-08-17T08:31:42.688Z,84683.492
2023-08-17T08:32:45.150Z,85089.398
2023-08-17T08:33:41.592Z,87308.789
2023-08-17T08:34:42.052Z,88852.477
2023-08-17T08:35:41.490Z,89868.766
2023-08-17T08:36:41.985Z,89952.383
2023-08-17T08:37:46.263Z,88593.914
2023-08-17T08:38:41.699Z,86845.430
2023-08-17T08:39:42.341Z,88846.383
2023-08-17T08:40:41.806Z,87228.055
2023-08-17T08:41:42.251Z,74908.562
2023-08-17T08:42:41.845Z,70017.484
2023-08-17T08:43:42.323Z,73999.812
2023-08-17T08:44:41.782Z,80908.047
2023-08-17T08:45:42.667Z,88587.492
2023-08-17T08:46:43.104Z,92711.383
2023-08-17T08:47:42.268Z,88310.148
2023-08-17T08:48:41.678Z,88560.852
2023-08-17T08:49:46.372Z,94960.148
2023-08-17T08:50:41.852Z,103787.328
2023-08-17T08:51:42.330Z,100054.258
2023-08-17T08:53:47.479Z,91525.766
2023-08-17T08:54:46.823Z,93968.414
2023-08-17T08:55:45.895Z,94406.258
2023-08-17T08:58:42.211Z,92161.828
2023-08-17T08:59:41.742Z,93116.484
2023-08-17T09:00:42.238Z,95045.375
2023-08-17T09:01:42.009Z,97257.547
2023-08-17T09:02:41.487Z,96566.914
2023-08-17T09:03:42.008Z,92834.164
2023-08-17T09:04:41.570Z,94442.695
2023-08-17T09:05:42.391Z,92968.023
2023-08-17T09:06:41.879Z,95920.742
2023-08-17T09:07:42.584Z,99691.844
2023-08-17T09:08:42.045Z,97687.523
2023-08-17T09:09:42.418Z,94234.203
2023-08-17T09:10:48.972Z,96332.578
2023-08-17T09:11:45.542Z,99303.594
2023-08-17T09:15:41.465Z,92309.812
2023-08-17T09:16:42.460Z,97852.836
2023-08-17T09:17:43.854Z,100467.867
2023-08-17T09:18:47.275Z,101838.695
2023-08-17T09:19:42.706Z,103909.141
2023-08-17T09:21:42.330Z,102625.141
2023-08-17T09:22:41.761Z,102729.469
2023-08-17T09:23:46.302Z,99178.250
2023-08-17T09:24:41.701Z,103085.461
2023-08-17T09:25:42.250Z,103249.969
2023-08-17T09:26:42.411Z,102566.078
2023-08-17T09:27:41.883Z,101015.492
2023-08-17T09:28:45.054Z,104387.758
2023-08-17T09:29:41.828Z,110066.727
2023-08-17T09:30:42.351Z,115273.023
2023-08-17T09:31:42.022Z,113689.695
2023-08-17T09:32:42.224Z,111639.305
2023-08-17T09:33:45.472Z,113936.867
2023-08-17T09:34:42.112Z,115775.555
2023-08-17T09:35:43.806Z,111001.156
2023-08-17T09:36:42.349Z,111763.531
2023-08-17T09:37:41.810Z,113013.188
2023-08-17T09:38:42.220Z,113204.820
2023-08-17T09:39:42.566Z,113280.898
2023-08-17T09:40:42.073Z,109994.180
2023-08-17T09:42:42.365Z,116716.562
2023-08-17T09:43:42.384Z,114137.969
2023-08-17T09:44:41.840Z,113594.359
2023-08-17T09:45:42.271Z,115013.500
2023-08-17T09:47:41.499Z,107663.719
2023-08-17T09:48:44.891Z,107303.719
2023-08-17T09:49:47.263Z,106155.344
2023-08-17T09:50:41.753Z,101189.797
2023-08-17T09:51:43.488Z,98987.250
2023-08-17T09:52:42.845Z,104255.023
2023-08-17T09:53:42.439Z,105467.602
2023-08-17T09:54:41.831Z,103493.609
2023-08-17T09:55:42.332Z,106527.219
2023-08-17T09:56:41.863Z,110164.789
2023-08-17T09:57:42.584Z,109888.734
2023-08-17T09:58:44.126Z,108638.438
2023-08-17T09:59:46.449Z,104371.227
2023-08-17T10:02:42.216Z,99348.055
2023-08-17T10:03:41.859Z,98891.914
2023-08-17T10:04:42.593Z,101367.945
2023-08-17T10:05:42.425Z,108354.836
2023-08-17T10:06:42.013Z,112785.922
2023-08-17T10:07:45.669Z,117288.742
2023-08-17T10:08:45.522Z,117677.156
2023-08-17T10:09:42.053Z,114287.234
2023-08-17T10:12:42.657Z,114632.312
2023-08-17T10:13:42.114Z,119502.680
2023-08-17T10:14:41.552Z,121795.586
2023-08-17T10:15:42.043Z,121254.703
2023-08-17T10:16:43.099Z,113632.719
2023-08-17T10:17:41.816Z,106202.852
2023-08-17T10:18:42.330Z,99420.438
2023-08-17T10:19:41.892Z,83787.578
2023-08-17T10:20:42.343Z,74165.445
2023-08-17T10:21:41.839Z,73976.375
2023-08-17T10:22:42.613Z,82034.758
2023-08-17T10:23:46.336Z,84135.383
2023-08-17T10:25:41.880Z,80417.242
2023-08-17T10:26:42.801Z,84731.805
2023-08-17T10:28:41.740Z,91025.492
2023-08-17T10:29:42.282Z,104821.750
2023-08-17T10:30:41.782Z,114745.305
2023-08-17T10:31:42.521Z,104961.383
2023-08-17T10:32:42.766Z,100190.844
2023-08-17T10:33:42.300Z,96834.469
2023-08-17T10:34:41.755Z,90905.758
2023-08-17T10:35:42.379Z,91574.883
2023-08-17T10:36:41.834Z,101702.750
2023-08-17T10:37:42.326Z,105940.750
2023-08-17T10:38:41.802Z,105820.539
2023-08-17T10:39:46.527Z,108183.898
2023-08-17T10:40:42.225Z,110150.188
2023-08-17T10:41:41.722Z,117093.094
2023-08-17T10:42:42.806Z,124198.430
2023-08-17T10:43:46.982Z,118917.820
2023-08-17T10:44:42.065Z,111812.484
2023-08-17T10:46:47.457Z,115951.297
2023-08-17T10:47:47.104Z,125778.555
2023-08-17T10:48:46.499Z,132090.703
2023-08-17T10:49:41.933Z,125277.633
2023-08-17T10:50:42.769Z,118427.008
2023-08-17T10:51:45.459Z,122557.641
2023-08-17T10:52:42.732Z,122260.555
2023-08-17T10:53:42.177Z,121802.484
2023-08-17T10:54:41.915Z,124038.250
2023-08-17T10:55:42.397Z,122344.336
2023-08-17T10:56:41.895Z,119257.758
2023-08-17T10:57:42.396Z,122934.812
2023-08-17T10:58:41.916Z,111790.500
2023-08-17T10:59:42.419Z,104173.648
2023-08-17T11:00:41.929Z,104218.266
2023-08-17T11:01:42.838Z,107855.836
2023-08-17T11:02:48.117Z,115134.031
2023-08-17T11:03:42.670Z,114616.422
2023-08-17T11:05:46.133Z,116223.992
2023-08-17T11:06:45.668Z,129143.273
2023-08-17T11:07:47.336Z,132920.484
2023-08-17T11:08:43.485Z,130016.398
2023-08-17T11:09:45.064Z,129915.117
2023-08-17T11:11:41.474Z,122204.055
2023-08-17T11:12:42.430Z,127366.062
2023-08-17T11:13:41.985Z,129020.492
2023-08-17T11:14:41.475Z,123724.477
2023-08-17T11:15:42.241Z,116316.758
2023-08-17T11:16:42.048Z,121030.000
2023-08-17T11:17:41.732Z,123810.820
2023-08-17T11:18:42.253Z,121763.164
2023-08-17T11:19:41.699Z,118228.633
2023-08-17T11:20:42.206Z,117535.273
2023-08-17T11:21:41.652Z,119759.641
2023-08-17T11:22:43.064Z,118710.453
2023-08-17T11:23:42.568Z,113911.180
2023-08-17T11:24:41.963Z,113234.516
2023-08-17T11:25:48.447Z,117419.234
2023-08-17T11:26:47.225Z,117249.586
2023-08-17T11:27:43.187Z,114918.484
2023-08-17T11:28:44.652Z,117948.398
2023-08-17T11:29:46.994Z,117850.977
2023-08-17T11:30:41.439Z,112268.789
2023-08-17T11:31:42.269Z,118382.555
2023-08-17T11:32:42.626Z,125982.547
2023-08-17T11:33:42.155Z,126898.523
2023-08-17T11:34:41.598Z,116719.133
2023-08-17T11:35:42.068Z,123506.352
2023-08-17T11:36:41.493Z,130839.602
2023-08-17T11:37:42.334Z,142213.266
2023-08-17T11:38:41.927Z,138219.547
2023-08-17T11:39:42.389Z,138162.406
2023-08-17T11:40:41.855Z,141251.078
2023-08-17T11:41:42.286Z,136464.328
2023-08-17T11:42:42.382Z,133000.734
2023-08-17T11:43:42.079Z,123808.414
2023-08-17T11:44:41.528Z,120442.406
2023-08-17T11:45:44.421Z,120748.641
2023-08-17T11:49:49.482Z,131233.625
2023-08-17T11:50:41.908Z,126901.734
2023-08-17T11:51:43.650Z,132665.453
2023-08-17T11:53:42.209Z,130706.703
2023-08-17T11:55:42.269Z,131365.875
2023-08-17T11:56:41.737Z,131029.312
2023-08-17T11:57:42.235Z,123669.586
2023-08-17T11:58:41.693Z,134612.469
2023-08-17T11:59:42.177Z,134813.266
2023-08-17T12:00:41.906Z,134451.969
2023-08-17T12:01:42.634Z,133810.938
2023-08-17T12:02:43.863Z,133508.875
2023-08-17T12:04:42.420Z,137835.641
2023-08-17T12:07:42.221Z,136366.094
2023-08-17T12:08:43.120Z,142663.953
2023-08-17T12:09:42.314Z,136858.188
2023-08-17T12:10:41.808Z,136430.781
2023-08-17T12:11:42.304Z,136461.109
2023-08-17T12:12:42.292Z,134036.125
2023-08-17T12:13:41.721Z,130542.195
2023-08-17T12:14:43.873Z,130281.539
2023-08-17T12:15:41.801Z,129005.570
2023-08-17T12:16:42.204Z,136489.516
2023-08-17T12:17:42.066Z,147981.000
2023-08-17T12:18:41.806Z,143709.609
2023-08-17T12:19:42.304Z,140480.828
2023-08-17T12:20:44.244Z,135491.531
2023-08-17T12:21:42.243Z,135824.562
2023-08-17T12:22:42.626Z,135273.406
2023-08-17T12:23:42.179Z,136958.984
2023-08-17T12:24:41.683Z,135288.016
2023-08-17T12:25:42.158Z,133581.094
2023-08-17T12:26:43.536Z,128281.555
2023-08-17T12:27:42.091Z,123390.953
2023-08-17T12:28:41.612Z,125943.391
2023-08-17T12:29:43.512Z,123958.320
2023-08-17T12:30:42.050Z,126530.336
2023-08-17T12:31:41.799Z,124418.312
2023-08-17T12:32:43.006Z,127849.805
2023-08-17T12:33:41.481Z,130266.297
2023-08-17T12:34:42.074Z,129143.594
2023-08-17T12:35:41.841Z,128381.867
2023-08-17T12:36:43.008Z,126064.086
2023-08-17T12:37:41.528Z,127509.062
2023-08-17T12:38:42.512Z,132805.891
2023-08-17T12:39:41.966Z,130114.625
2023-08-17T12:40:42.524Z,114135.242
2023-08-17T12:41:42.097Z,45048.820
2023-08-17T12:42:41.913Z,77858.391
2023-08-17T12:43:42.444Z,85934.266
2023-08-17T12:44:42.075Z,102689.344
2023-08-17T12:45:45.097Z,131212.125
2023-08-17T12:46:41.619Z,47678.934
2023-08-17T12:47:47.221Z,44151.785
2023-08-17T12:48:45.770Z,42996.828
2023-08-17T12:49:42.393Z,42846.918
2023-08-17T12:50:46.885Z,43643.801
2023-08-17T12:52:47.201Z,123992.188
2023-08-17T12:53:41.987Z,124652.805
2023-08-17T12:54:41.395Z,128004.531
2023-08-17T12:55:41.863Z,122826.961
2023-08-17T12:56:42.416Z,124664.680
2023-08-17T12:57:42.014Z,126922.758
2023-08-17T12:58:41.617Z,123080.227
2023-08-17T12:59:42.104Z,115244.617
2023-08-17T13:00:41.782Z,57844.039
2023-08-17T13:01:42.269Z,86504.047
2023-08-17T13:02:43.433Z,129647.242
2023-08-17T13:03:42.148Z,134492.578
2023-08-17T13:04:41.629Z,130500.305
2023-08-17T13:06:51.819Z,110155.000